sensor_id;sensor_type;location;lat;lon;timestamp;P1;durP1;ratioP1;P2;durP2;ratioP2
60018;SDS011;45870;42.528;26.740;2023-08-07T00:01:47;5.07;;;4.57;;
60018;SDS011;45870;42.528;26.740;2023-08-07T00:04:13;5.57;;;4.85;;
60018;SDS011;45870;42.528;26.740;2023-08-07T00:06:38;7.13;;;4.80;;
60018;SDS011;45870;42.528;26.740;2023-08-07T00:09:04;5.75;;;5.15;;
60018;SDS011;45870;42.528;26.740;2023-08-07T00:11:29;7.70;;;5.28;;
60018;SDS011;45870;42.528;26.740;2023-08-07T00:13:55;6.63;;;4.90;;
60018;SDS011;45870;42.528;26.740;2023-08-07T00:16:21;6.32;;;4.70;;
60018;SDS011;45870;42.528;26.740;2023-08-07T00:18:46;7.75;;;4.75;;
60018;SDS011;45870;42.528;26.740;2023-08-07T00:21:12;5.50;;;4.35;;
60018;SDS011;45870;42.528;26.740;2023-08-07T00:23:38;5.45;;;4.38;;
60018;SDS011;45870;42.528;26.740;2023-08-07T00:26:03;7.45;;;4.63;;
60018;SDS011;45870;42.528;26.740;2023-08-07T00:28:29;5.38;;;4.60;;
60018;SDS011;45870;42.528;26.740;2023-08-07T00:30:55;5.28;;;4.30;;
60018;SDS011;45870;42.528;26.740;2023-08-07T00:33:21;5.10;;;4.47;;
60018;SDS011;45870;42.528;26.740;2023-08-07T00:35:47;5.53;;;4.70;;
60018;SDS011;45870;42.528;26.740;2023-08-07T00:38:13;6.28;;;4.57;;
60018;SDS011;45870;42.528;26.740;2023-08-07T00:40:39;7.63;;;5.13;;
60018;SDS011;45870;42.528;26.740;2023-08-07T00:43:05;5.78;;;5.18;;
60018;SDS011;45870;42.528;26.740;2023-08-07T00:45:34;5.80;;;4.97;;
60018;SDS011;45870;42.528;26.740;2023-08-07T00:48:03;6.57;;;4.93;;
60018;SDS011;45870;42.528;26.740;2023-08-07T00:50:30;7.13;;;5.20;;
60018;SDS011;45870;42.528;26.740;2023-08-07T00:52:56;7.35;;;4.97;;
60018;SDS011;45870;42.528;26.740;2023-08-07T00:55:22;6.25;;;5.13;;
60018;SDS011;45870;42.528;26.740;2023-08-07T00:57:47;8.77;;;5.07;;
60018;SDS011;45870;42.528;26.740;2023-08-07T01:00:14;7.13;;;5.68;;
60018;SDS011;45870;42.528;26.740;2023-08-07T01:02:41;6.55;;;5.72;;
60018;SDS011;45870;42.528;26.740;2023-08-07T01:05:07;6.72;;;5.05;;
60018;SDS011;45870;42.528;26.740;2023-08-07T01:07:33;6.93;;;5.68;;
60018;SDS011;45870;42.528;26.740;2023-08-07T01:09:58;8.32;;;5.65;;
60018;SDS011;45870;42.528;26.740;2023-08-07T01:12:33;8.65;;;6.30;;
60018;SDS011;45870;42.528;26.740;2023-08-07T01:15:20;6.80;;;6.10;;
60018;SDS011;45870;42.528;26.740;2023-08-07T01:17:50;7.45;;;6.15;;
60018;SDS011;45870;42.528;26.740;2023-08-07T01:20:19;8.48;;;6.13;;
60018;SDS011;45870;42.528;26.740;2023-08-07T01:22:44;7.22;;;5.97;;
60018;SDS011;45870;42.528;26.740;2023-08-07T01:25:10;8.38;;;6.18;;
60018;SDS011;45870;42.528;26.740;2023-08-07T01:27:44;8.23;;;6.47;;
60018;SDS011;45870;42.528;26.740;2023-08-07T01:30:26;8.77;;;6.22;;
60018;SDS011;45870;42.528;26.740;2023-08-07T01:35:47;7.50;;;6.22;;
60018;SDS011;45870;42.528;26.740;2023-08-07T01:38:16;10.52;;;6.30;;
60018;SDS011;45870;42.528;26.740;2023-08-07T01:40:44;6.88;;;5.90;;
60018;SDS011;45870;42.528;26.740;2023-08-07T01:43:11;11.52;;;6.75;;
60018;SDS011;45870;42.528;26.740;2023-08-07T01:45:37;8.57;;;7.00;;
60018;SDS011;45870;42.528;26.740;2023-08-07T01:48:03;7.80;;;6.38;;
60018;SDS011;45870;42.528;26.740;2023-08-07T01:50:29;8.60;;;7.18;;
60018;SDS011;45870;42.528;26.740;2023-08-07T01:52:55;8.57;;;7.13;;
60018;SDS011;45870;42.528;26.740;2023-08-07T01:55:22;8.60;;;6.95;;
60018;SDS011;45870;42.528;26.740;2023-08-07T01:57:47;10.02;;;7.45;;
60018;SDS011;45870;42.528;26.740;2023-08-07T02:00:13;7.78;;;6.00;;
60018;SDS011;45870;42.528;26.740;2023-08-07T02:02:39;10.90;;;7.03;;
60018;SDS011;45870;42.528;26.740;2023-08-07T02:05:04;8.80;;;7.65;;
60018;SDS011;45870;42.528;26.740;2023-08-07T02:07:30;8.98;;;6.85;;
60018;SDS011;45870;42.528;26.740;2023-08-07T02:09:56;8.38;;;6.90;;
60018;SDS011;45870;42.528;26.740;2023-08-07T02:12:22;7.95;;;6.38;;
60018;SDS011;45870;42.528;26.740;2023-08-07T02:14:48;8.38;;;6.88;;
60018;SDS011;45870;42.528;26.740;2023-08-07T02:17:14;10.27;;;7.00;;
60018;SDS011;45870;42.528;26.740;2023-08-07T02:19:40;8.18;;;6.72;;
60018;SDS011;45870;42.528;26.740;2023-08-07T02:22:05;8.65;;;7.35;;
60018;SDS011;45870;42.528;26.740;2023-08-07T02:24:31;8.95;;;7.07;;
60018;SDS011;45870;42.528;26.740;2023-08-07T02:26:56;11.43;;;7.72;;
60018;SDS011;45870;42.528;26.740;2023-08-07T02:29:22;9.18;;;7.28;;
60018;SDS011;45870;42.528;26.740;2023-08-07T02:31:48;8.18;;;7.38;;
60018;SDS011;45870;42.528;26.740;2023-08-07T02:34:14;9.18;;;7.57;;
60018;SDS011;45870;42.528;26.740;2023-08-07T02:36:39;10.40;;;7.43;;
60018;SDS011;45870;42.528;26.740;2023-08-07T02:39:06;11.48;;;8.18;;
60018;SDS011;45870;42.528;26.740;2023-08-07T02:41:32;7.93;;;6.70;;
60018;SDS011;45870;42.528;26.740;2023-08-07T02:43:58;11.65;;;7.95;;
60018;SDS011;45870;42.528;26.740;2023-08-07T02:46:23;12.38;;;7.70;;
60018;SDS011;45870;42.528;26.740;2023-08-07T02:48:49;11.18;;;7.95;;
60018;SDS011;45870;42.528;26.740;2023-08-07T02:51:15;8.70;;;7.68;;
60018;SDS011;45870;42.528;26.740;2023-08-07T02:53:40;11.02;;;8.15;;
60018;SDS011;45870;42.528;26.740;2023-08-07T02:56:06;11.35;;;7.45;;
60018;SDS011;45870;42.528;26.740;2023-08-07T02:58:31;9.48;;;8.25;;
60018;SDS011;45870;42.528;26.740;2023-08-07T03:01:02;10.95;;;8.18;;
60018;SDS011;45870;42.528;26.740;2023-08-07T03:05:55;9.73;;;8.00;;
60018;SDS011;45870;42.528;26.740;2023-08-07T03:08:20;10.45;;;7.63;;
60018;SDS011;45870;42.528;26.740;2023-08-07T03:10:56;8.63;;;7.70;;
60018;SDS011;45870;42.528;26.740;2023-08-07T03:13:22;8.88;;;7.68;;
60018;SDS011;45870;42.528;26.740;2023-08-07T03:15:49;10.65;;;8.27;;
60018;SDS011;45870;42.528;26.740;2023-08-07T03:18:16;9.18;;;8.18;;
60018;SDS011;45870;42.528;26.740;2023-08-07T03:20:42;9.73;;;8.10;;
60018;SDS011;45870;42.528;26.740;2023-08-07T03:23:09;9.27;;;7.88;;
60018;SDS011;45870;42.528;26.740;2023-08-07T03:25:35;11.10;;;8.07;;
60018;SDS011;45870;42.528;26.740;2023-08-07T03:28:01;10.05;;;7.70;;
60018;SDS011;45870;42.528;26.740;2023-08-07T03:30:27;8.07;;;7.22;;
60018;SDS011;45870;42.528;26.740;2023-08-07T03:32:53;7.18;;;6.38;;
60018;SDS011;45870;42.528;26.740;2023-08-07T03:35:18;7.32;;;6.10;;
60018;SDS011;45870;42.528;26.740;2023-08-07T03:37:44;6.15;;;5.53;;
60018;SDS011;45870;42.528;26.740;2023-08-07T03:40:10;6.13;;;5.28;;
60018;SDS011;45870;42.528;26.740;2023-08-07T03:42:36;8.13;;;4.95;;
60018;SDS011;45870;42.528;26.740;2023-08-07T03:45:02;4.90;;;4.35;;
60018;SDS011;45870;42.528;26.740;2023-08-07T03:47:27;5.15;;;3.80;;
60018;SDS011;45870;42.528;26.740;2023-08-07T03:49:53;6.35;;;3.90;;
60018;SDS011;45870;42.528;26.740;2023-08-07T03:52:19;3.97;;;3.58;;
60018;SDS011;45870;42.528;26.740;2023-08-07T03:54:44;4.38;;;3.63;;
60018;SDS011;45870;42.528;26.740;2023-08-07T03:57:10;4.45;;;2.75;;
60018;SDS011;45870;42.528;26.740;2023-08-07T03:59:36;3.47;;;2.78;;
60018;SDS011;45870;42.528;26.740;2023-08-07T04:02:02;6.78;;;2.45;;
60018;SDS011;45870;42.528;26.740;2023-08-07T04:04:28;3.20;;;2.65;;
60018;SDS011;45870;42.528;26.740;2023-08-07T04:06:53;2.60;;;2.33;;
60018;SDS011;45870;42.528;26.740;2023-08-07T04:09:19;3.63;;;2.17;;
60018;SDS011;45870;42.528;26.740;2023-08-07T04:11:45;4.38;;;2.10;;
60018;SDS011;45870;42.528;26.740;2023-08-07T04:14:10;2.35;;;1.80;;
60018;SDS011;45870;42.528;26.740;2023-08-07T04:16:36;2.13;;;1.80;;
60018;SDS011;45870;42.528;26.740;2023-08-07T04:19:02;2.20;;;1.95;;
60018;SDS011;45870;42.528;26.740;2023-08-07T04:21:30;1.83;;;1.50;;
60018;SDS011;45870;42.528;26.740;2023-08-07T04:23:56;1.90;;;1.63;;
60018;SDS011;45870;42.528;26.740;2023-08-07T04:26:21;2.08;;;1.80;;
60018;SDS011;45870;42.528;26.740;2023-08-07T04:28:47;2.35;;;1.77;;
60018;SDS011;45870;42.528;26.740;2023-08-07T04:31:13;2.35;;;1.80;;
60018;SDS011;45870;42.528;26.740;2023-08-07T04:33:38;2.05;;;1.73;;
60018;SDS011;45870;42.528;26.740;2023-08-07T04:36:04;2.03;;;1.83;;
60018;SDS011;45870;42.528;26.740;2023-08-07T04:38:30;3.40;;;1.65;;
60018;SDS011;45870;42.528;26.740;2023-08-07T04:40:56;1.80;;;1.70;;
60018;SDS011;45870;42.528;26.740;2023-08-07T04:43:21;1.67;;;1.58;;
60018;SDS011;45870;42.528;26.740;2023-08-07T04:45:47;2.22;;;1.65;;
60018;SDS011;45870;42.528;26.740;2023-08-07T04:48:14;1.50;;;1.40;;
60018;SDS011;45870;42.528;26.740;2023-08-07T04:50:40;1.48;;;1.35;;
60018;SDS011;45870;42.528;26.740;2023-08-07T04:53:06;1.40;;;1.30;;
60018;SDS011;45870;42.528;26.740;2023-08-07T04:55:32;2.10;;;1.70;;
60018;SDS011;45870;42.528;26.740;2023-08-07T04:57:58;1.73;;;1.38;;
60018;SDS011;45870;42.528;26.740;2023-08-07T05:00:24;1.67;;;1.35;;
60018;SDS011;45870;42.528;26.740;2023-08-07T05:02:50;1.63;;;1.52;;
60018;SDS011;45870;42.528;26.740;2023-08-07T05:05:16;1.80;;;1.70;;
60018;SDS011;45870;42.528;26.740;2023-08-07T05:07:46;1.63;;;1.40;;
60018;SDS011;45870;42.528;26.740;2023-08-07T05:10:12;1.60;;;1.50;;
60018;SDS011;45870;42.528;26.740;2023-08-07T05:12:38;2.05;;;1.58;;
60018;SDS011;45870;42.528;26.740;2023-08-07T05:15:04;1.58;;;1.45;;
60018;SDS011;45870;42.528;26.740;2023-08-07T05:17:31;1.67;;;1.50;;
60018;SDS011;45870;42.528;26.740;2023-08-07T05:19:57;4.20;;;1.75;;
60018;SDS011;45870;42.528;26.740;2023-08-07T05:22:22;1.92;;;1.80;;
60018;SDS011;45870;42.528;26.740;2023-08-07T05:24:48;3.17;;;1.70;;
60018;SDS011;45870;42.528;26.740;2023-08-07T05:27:14;1.70;;;1.60;;
60018;SDS011;45870;42.528;26.740;2023-08-07T05:29:40;1.45;;;1.30;;
60018;SDS011;45870;42.528;26.740;2023-08-07T05:32:12;1.60;;;1.50;;
60018;SDS011;45870;42.528;26.740;2023-08-07T05:34:39;1.77;;;1.67;;
60018;SDS011;45870;42.528;26.740;2023-08-07T05:37:05;1.52;;;1.42;;
60018;SDS011;45870;42.528;26.740;2023-08-07T05:39:31;2.75;;;1.80;;
60018;SDS011;45870;42.528;26.740;2023-08-07T05:41:57;1.98;;;1.58;;
60018;SDS011;45870;42.528;26.740;2023-08-07T05:44:23;1.77;;;1.67;;
60018;SDS011;45870;42.528;26.740;2023-08-07T05:46:49;1.90;;;1.70;;
60018;SDS011;45870;42.528;26.740;2023-08-07T05:49:15;2.05;;;1.83;;
60018;SDS011;45870;42.528;26.740;2023-08-07T05:51:41;2.28;;;1.92;;
60018;SDS011;45870;42.528;26.740;2023-08-07T05:54:07;2.47;;;2.00;;
60018;SDS011;45870;42.528;26.740;2023-08-07T05:56:34;2.05;;;1.85;;
60018;SDS011;45870;42.528;26.740;2023-08-07T05:58:59;4.35;;;2.00;;
60018;SDS011;45870;42.528;26.740;2023-08-07T06:01:25;3.05;;;2.20;;
60018;SDS011;45870;42.528;26.740;2023-08-07T06:03:57;5.80;;;1.90;;
60018;SDS011;45870;42.528;26.740;2023-08-07T06:06:23;3.13;;;1.95;;
60018;SDS011;45870;42.528;26.740;2023-08-07T06:08:50;1.98;;;1.63;;
60018;SDS011;45870;42.528;26.740;2023-08-07T06:11:16;2.90;;;1.80;;
60018;SDS011;45870;42.528;26.740;2023-08-07T06:13:42;1.90;;;1.70;;
60018;SDS011;45870;42.528;26.740;2023-08-07T06:16:07;2.20;;;1.77;;
60018;SDS011;45870;42.528;26.740;2023-08-07T06:18:33;1.48;;;1.38;;
60018;SDS011;45870;42.528;26.740;2023-08-07T06:20:59;2.33;;;1.60;;
60018;SDS011;45870;42.528;26.740;2023-08-07T06:23:25;1.90;;;1.70;;
60018;SDS011;45870;42.528;26.740;2023-08-07T06:25:50;2.17;;;1.70;;
60018;SDS011;45870;42.528;26.740;2023-08-07T06:28:16;2.10;;;1.65;;
60018;SDS011;45870;42.528;26.740;2023-08-07T06:30:42;3.30;;;1.83;;
60018;SDS011;45870;42.528;26.740;2023-08-07T06:33:07;2.58;;;1.50;;
60018;SDS011;45870;42.528;26.740;2023-08-07T06:35:39;1.70;;;1.20;;
60018;SDS011;45870;42.528;26.740;2023-08-07T06:38:05;1.77;;;1.58;;
60018;SDS011;45870;42.528;26.740;2023-08-07T06:40:31;1.60;;;1.50;;
60018;SDS011;45870;42.528;26.740;2023-08-07T06:43:00;2.58;;;1.13;;
60018;SDS011;45870;42.528;26.740;2023-08-07T06:45:25;1.63;;;1.10;;
60018;SDS011;45870;42.528;26.740;2023-08-07T06:47:51;1.33;;;1.23;;
60018;SDS011;45870;42.528;26.740;2023-08-07T06:50:17;1.10;;;1.00;;
60018;SDS011;45870;42.528;26.740;2023-08-07T06:52:42;1.73;;;1.00;;
60018;SDS011;45870;42.528;26.740;2023-08-07T06:55:08;3.10;;;1.20;;
60018;SDS011;45870;42.528;26.740;2023-08-07T06:57:34;2.78;;;1.15;;
60018;SDS011;45870;42.528;26.740;2023-08-07T07:00:00;1.48;;;1.20;;
60018;SDS011;45870;42.528;26.740;2023-08-07T07:02:25;1.40;;;0.88;;
60018;SDS011;45870;42.528;26.740;2023-08-07T07:04:51;3.47;;;1.10;;
60018;SDS011;45870;42.528;26.740;2023-08-07T07:07:17;2.13;;;1.10;;
60018;SDS011;45870;42.528;26.740;2023-08-07T07:09:42;3.80;;;1.10;;
60018;SDS011;45870;42.528;26.740;2023-08-07T07:12:08;1.20;;;1.10;;
60018;SDS011;45870;42.528;26.740;2023-08-07T07:14:34;1.27;;;1.02;;
60018;SDS011;45870;42.528;26.740;2023-08-07T07:17:00;0.80;;;0.80;;
60018;SDS011;45870;42.528;26.740;2023-08-07T07:19:26;3.15;;;1.15;;
60018;SDS011;45870;42.528;26.740;2023-08-07T07:21:51;1.08;;;1.00;;
60018;SDS011;45870;42.528;26.740;2023-08-07T07:24:18;5.72;;;1.10;;
60018;SDS011;45870;42.528;26.740;2023-08-07T07:26:45;1.02;;;0.93;;
60018;SDS011;45870;42.528;26.740;2023-08-07T07:29:11;1.13;;;1.02;;
60018;SDS011;45870;42.528;26.740;2023-08-07T07:31:37;1.10;;;1.00;;
60018;SDS011;45870;42.528;26.740;2023-08-07T07:34:02;1.10;;;1.00;;
60018;SDS011;45870;42.528;26.740;2023-08-07T07:36:28;2.33;;;0.98;;
60018;SDS011;45870;42.528;26.740;2023-08-07T07:38:54;1.63;;;0.98;;
60018;SDS011;45870;42.528;26.740;2023-08-07T07:41:21;0.93;;;0.90;;
60018;SDS011;45870;42.528;26.740;2023-08-07T07:43:48;1.20;;;0.93;;
60018;SDS011;45870;42.528;26.740;2023-08-07T07:46:13;1.48;;;1.00;;
60018;SDS011;45870;42.528;26.740;2023-08-07T07:48:39;1.77;;;1.08;;
60018;SDS011;45870;42.528;26.740;2023-08-07T07:51:05;0.90;;;0.90;;
60018;SDS011;45870;42.528;26.740;2023-08-07T07:53:31;0.90;;;0.80;;
60018;SDS011;45870;42.528;26.740;2023-08-07T07:55:57;1.38;;;0.90;;
60018;SDS011;45870;42.528;26.740;2023-08-07T07:58:23;0.70;;;0.70;;
60018;SDS011;45870;42.528;26.740;2023-08-07T08:00:49;1.75;;;0.90;;
60018;SDS011;45870;42.528;26.740;2023-08-07T08:03:14;2.97;;;1.00;;
60018;SDS011;45870;42.528;26.740;2023-08-07T08:05:40;0.95;;;0.90;;
60018;SDS011;45870;42.528;26.740;2023-08-07T08:08:06;3.53;;;1.20;;
60018;SDS011;45870;42.528;26.740;2023-08-07T08:10:35;1.10;;;1.00;;
60018;SDS011;45870;42.528;26.740;2023-08-07T08:13:01;1.05;;;0.95;;
60018;SDS011;45870;42.528;26.740;2023-08-07T08:15:29;1.02;;;0.90;;
60018;SDS011;45870;42.528;26.740;2023-08-07T08:17:55;1.52;;;1.10;;
60018;SDS011;45870;42.528;26.740;2023-08-07T08:20:21;1.17;;;0.70;;
60018;SDS011;45870;42.528;26.740;2023-08-07T08:22:47;2.03;;;1.10;;
60018;SDS011;45870;42.528;26.740;2023-08-07T08:25:13;1.02;;;0.90;;
60018;SDS011;45870;42.528;26.740;2023-08-07T08:27:39;2.22;;;0.82;;
60018;SDS011;45870;42.528;26.740;2023-08-07T08:30:05;0.63;;;0.60;;
60018;SDS011;45870;42.528;26.740;2023-08-07T08:32:32;0.93;;;0.70;;
60018;SDS011;45870;42.528;26.740;2023-08-07T08:34:58;0.90;;;0.80;;
60018;SDS011;45870;42.528;26.740;2023-08-07T08:37:24;0.98;;;0.70;;
60018;SDS011;45870;42.528;26.740;2023-08-07T08:39:49;1.00;;;0.90;;
60018;SDS011;45870;42.528;26.740;2023-08-07T08:42:15;0.60;;;0.60;;
60018;SDS011;45870;42.528;26.740;2023-08-07T08:44:45;1.77;;;0.68;;
60018;SDS011;45870;42.528;26.740;2023-08-07T08:47:15;0.90;;;0.60;;
60018;SDS011;45870;42.528;26.740;2023-08-07T08:50:01;1.17;;;0.65;;
60018;SDS011;45870;42.528;26.740;2023-08-07T08:52:31;3.50;;;0.80;;
60018;SDS011;45870;42.528;26.740;2023-08-07T08:54:58;2.30;;;0.60;;
60018;SDS011;45870;42.528;26.740;2023-08-07T08:57:26;4.38;;;0.90;;
60018;SDS011;45870;42.528;26.740;2023-08-07T08:59:53;2.40;;;0.75;;
60018;SDS011;45870;42.528;26.740;2023-08-07T09:02:19;0.65;;;0.65;;
60018;SDS011;45870;42.528;26.740;2023-08-07T09:04:46;3.83;;;0.98;;
60018;SDS011;45870;42.528;26.740;2023-08-07T09:07:13;2.25;;;0.70;;
60018;SDS011;45870;42.528;26.740;2023-08-07T09:09:42;0.57;;;0.55;;
60018;SDS011;45870;42.528;26.740;2023-08-07T09:12:16;0.65;;;0.60;;
60018;SDS011;45870;42.528;26.740;2023-08-07T09:14:49;1.10;;;0.68;;
60018;SDS011;45870;42.528;26.740;2023-08-07T09:17:23;0.60;;;0.60;;
60018;SDS011;45870;42.528;26.740;2023-08-07T09:19:53;0.60;;;0.60;;
60018;SDS011;45870;42.528;26.740;2023-08-07T09:22:19;2.47;;;0.90;;
60018;SDS011;45870;42.528;26.740;2023-08-07T09:24:45;1.08;;;0.70;;
60018;SDS011;45870;42.528;26.740;2023-08-07T09:27:12;0.50;;;0.50;;
60018;SDS011;45870;42.528;26.740;2023-08-07T09:29:43;1.95;;;0.88;;
60018;SDS011;45870;42.528;26.740;2023-08-07T09:32:13;0.70;;;0.50;;
60018;SDS011;45870;42.528;26.740;2023-08-07T09:34:39;0.55;;;0.55;;
60018;SDS011;45870;42.528;26.740;2023-08-07T09:37:06;0.50;;;0.50;;
60018;SDS011;45870;42.528;26.740;2023-08-07T09:39:34;0.45;;;0.45;;
60018;SDS011;45870;42.528;26.740;2023-08-07T09:42:14;0.40;;;0.40;;
60018;SDS011;45870;42.528;26.740;2023-08-07T09:44:43;1.30;;;0.68;;
60018;SDS011;45870;42.528;26.740;2023-08-07T09:47:13;1.75;;;0.50;;
60018;SDS011;45870;42.528;26.740;2023-08-07T09:49:40;2.55;;;0.47;;
60018;SDS011;45870;42.528;26.740;2023-08-07T09:52:09;0.50;;;0.50;;
60018;SDS011;45870;42.528;26.740;2023-08-07T09:54:38;0.47;;;0.47;;
60018;SDS011;45870;42.528;26.740;2023-08-07T09:57:04;0.73;;;0.50;;
60018;SDS011;45870;42.528;26.740;2023-08-07T09:59:33;0.52;;;0.45;;
60018;SDS011;45870;42.528;26.740;2023-08-07T10:02:03;0.38;;;0.38;;
60018;SDS011;45870;42.528;26.740;2023-08-07T10:04:29;2.42;;;0.32;;
60018;SDS011;45870;42.528;26.740;2023-08-07T10:06:56;1.20;;;0.50;;
60018;SDS011;45870;42.528;26.740;2023-08-07T10:09:23;0.55;;;0.50;;
60018;SDS011;45870;42.528;26.740;2023-08-07T10:11:51;1.20;;;0.50;;
60018;SDS011;45870;42.528;26.740;2023-08-07T10:14:17;1.23;;;0.40;;
60018;SDS011;45870;42.528;26.740;2023-08-07T10:16:44;0.40;;;0.40;;
60018;SDS011;45870;42.528;26.740;2023-08-07T10:19:11;0.40;;;0.40;;
60018;SDS011;45870;42.528;26.740;2023-08-07T10:21:41;0.40;;;0.40;;
60018;SDS011;45870;42.528;26.740;2023-08-07T10:24:08;0.40;;;0.40;;
60018;SDS011;45870;42.528;26.740;2023-08-07T10:26:35;0.30;;;0.30;;
60018;SDS011;45870;42.528;26.740;2023-08-07T10:29:06;0.90;;;0.43;;
60018;SDS011;45870;42.528;26.740;2023-08-07T10:31:35;1.27;;;0.50;;
60018;SDS011;45870;42.528;26.740;2023-08-07T10:34:03;0.82;;;0.47;;
60018;SDS011;45870;42.528;26.740;2023-08-07T10:36:33;0.50;;;0.50;;
60018;SDS011;45870;42.528;26.740;2023-08-07T10:39:06;0.40;;;0.40;;
60018;SDS011;45870;42.528;26.740;2023-08-07T10:41:39;0.60;;;0.50;;
60018;SDS011;45870;42.528;26.740;2023-08-07T10:44:11;3.10;;;0.40;;
60018;SDS011;45870;42.528;26.740;2023-08-07T10:46:46;0.40;;;0.40;;
60018;SDS011;45870;42.528;26.740;2023-08-07T10:51:58;0.70;;;0.57;;
60018;SDS011;45870;42.528;26.740;2023-08-07T10:54:38;0.60;;;0.50;;
60018;SDS011;45870;42.528;26.740;2023-08-07T10:57:11;0.43;;;0.40;;
60018;SDS011;45870;42.528;26.740;2023-08-07T10:59:42;0.40;;;0.40;;
60018;SDS011;45870;42.528;26.740;2023-08-07T11:02:22;1.20;;;0.50;;
60018;SDS011;45870;42.528;26.740;2023-08-07T11:04:51;2.13;;;0.40;;
60018;SDS011;45870;42.528;26.740;2023-08-07T11:07:27;0.32;;;0.30;;
60018;SDS011;45870;42.528;26.740;2023-08-07T11:09:54;0.30;;;0.30;;
60018;SDS011;45870;42.528;26.740;2023-08-07T11:12:20;0.60;;;0.40;;
60018;SDS011;45870;42.528;26.740;2023-08-07T11:14:46;0.40;;;0.40;;
60018;SDS011;45870;42.528;26.740;2023-08-07T11:17:12;2.30;;;0.60;;
60018;SDS011;45870;42.528;26.740;2023-08-07T11:19:38;1.20;;;0.50;;
60018;SDS011;45870;42.528;26.740;2023-08-07T11:22:06;0.60;;;0.60;;
60018;SDS011;45870;42.528;26.740;2023-08-07T11:24:32;0.73;;;0.50;;
60018;SDS011;45870;42.528;26.740;2023-08-07T11:26:59;0.43;;;0.43;;
60018;SDS011;45870;42.528;26.740;2023-08-07T11:29:24;1.85;;;0.50;;
60018;SDS011;45870;42.528;26.740;2023-08-07T11:31:50;1.27;;;0.40;;
60018;SDS011;45870;42.528;26.740;2023-08-07T11:34:19;0.60;;;0.50;;
60018;SDS011;45870;42.528;26.740;2023-08-07T11:36:46;0.50;;;0.50;;
60018;SDS011;45870;42.528;26.740;2023-08-07T11:39:13;1.13;;;0.55;;
60018;SDS011;45870;42.528;26.740;2023-08-07T11:41:42;2.10;;;0.50;;
60018;SDS011;45870;42.528;26.740;2023-08-07T11:44:10;0.52;;;0.50;;
60018;SDS011;45870;42.528;26.740;2023-08-07T11:46:36;0.55;;;0.50;;
60018;SDS011;45870;42.528;26.740;2023-08-07T11:49:01;0.75;;;0.50;;
60018;SDS011;45870;42.528;26.740;2023-08-07T11:51:29;1.23;;;0.80;;
60018;SDS011;45870;42.528;26.740;2023-08-07T11:53:55;1.52;;;0.50;;
60018;SDS011;45870;42.528;26.740;2023-08-07T11:56:23;0.70;;;0.60;;
60018;SDS011;45870;42.528;26.740;2023-08-07T11:58:51;1.38;;;0.55;;
60018;SDS011;45870;42.528;26.740;2023-08-07T12:01:20;0.73;;;0.55;;
60018;SDS011;45870;42.528;26.740;2023-08-07T12:03:53;0.50;;;0.50;;
60018;SDS011;45870;42.528;26.740;2023-08-07T12:06:31;1.35;;;0.57;;
60018;SDS011;45870;42.528;26.740;2023-08-07T12:08:58;0.90;;;0.70;;
60018;SDS011;45870;42.528;26.740;2023-08-07T12:11:24;0.70;;;0.70;;
60018;SDS011;45870;42.528;26.740;2023-08-07T12:13:50;0.50;;;0.50;;
60018;SDS011;45870;42.528;26.740;2023-08-07T12:16:16;0.60;;;0.60;;
60018;SDS011;45870;42.528;26.740;2023-08-07T12:18:48;1.67;;;0.50;;
60018;SDS011;45870;42.528;26.740;2023-08-07T12:21:15;1.33;;;0.60;;
60018;SDS011;45870;42.528;26.740;2023-08-07T12:23:43;0.73;;;0.60;;
60018;SDS011;45870;42.528;26.740;2023-08-07T12:26:09;0.68;;;0.50;;
60018;SDS011;45870;42.528;26.740;2023-08-07T12:28:35;0.50;;;0.50;;
60018;SDS011;45870;42.528;26.740;2023-08-07T12:31:02;0.70;;;0.70;;
60018;SDS011;45870;42.528;26.740;2023-08-07T12:33:28;0.85;;;0.80;;
60018;SDS011;45870;42.528;26.740;2023-08-07T12:35:55;0.52;;;0.50;;
60018;SDS011;45870;42.528;26.740;2023-08-07T12:38:21;2.47;;;0.70;;
60018;SDS011;45870;42.528;26.740;2023-08-07T12:40:47;0.70;;;0.55;;
60018;SDS011;45870;42.528;26.740;2023-08-07T12:43:14;0.50;;;0.50;;
60018;SDS011;45870;42.528;26.740;2023-08-07T12:45:40;1.17;;;0.93;;
60018;SDS011;45870;42.528;26.740;2023-08-07T12:48:06;1.48;;;0.60;;
60018;SDS011;45870;42.528;26.740;2023-08-07T12:50:32;0.90;;;0.60;;
60018;SDS011;45870;42.528;26.740;2023-08-07T12:52:58;1.10;;;0.80;;
60018;SDS011;45870;42.528;26.740;2023-08-07T12:55:25;1.33;;;0.70;;
60018;SDS011;45870;42.528;26.740;2023-08-07T12:57:54;0.80;;;0.60;;
60018;SDS011;45870;42.528;26.740;2023-08-07T13:00:21;0.75;;;0.73;;
60018;SDS011;45870;42.528;26.740;2023-08-07T13:02:48;0.70;;;0.65;;
60018;SDS011;45870;42.528;26.740;2023-08-07T13:05:14;2.35;;;0.95;;
60018;SDS011;45870;42.528;26.740;2023-08-07T13:07:43;2.83;;;0.80;;
60018;SDS011;45870;42.528;26.740;2023-08-07T13:10:11;1.70;;;0.80;;
60018;SDS011;45870;42.528;26.740;2023-08-07T13:12:39;1.88;;;0.75;;
60018;SDS011;45870;42.528;26.740;2023-08-07T13:15:08;0.68;;;0.60;;
60018;SDS011;45870;42.528;26.740;2023-08-07T13:17:35;0.73;;;0.52;;
60018;SDS011;45870;42.528;26.740;2023-08-07T13:20:02;0.77;;;0.65;;
60018;SDS011;45870;42.528;26.740;2023-08-07T13:22:33;0.60;;;0.50;;
60018;SDS011;45870;42.528;26.740;2023-08-07T13:25:00;0.82;;;0.60;;
60018;SDS011;45870;42.528;26.740;2023-08-07T13:27:26;0.70;;;0.70;;
60018;SDS011;45870;42.528;26.740;2023-08-07T13:29:52;0.90;;;0.80;;
60018;SDS011;45870;42.528;26.740;2023-08-07T13:32:17;0.85;;;0.80;;
60018;SDS011;45870;42.528;26.740;2023-08-07T13:34:45;1.50;;;0.80;;
60018;SDS011;45870;42.528;26.740;2023-08-07T13:37:11;1.55;;;0.80;;
60018;SDS011;45870;42.528;26.740;2023-08-07T13:39:37;2.78;;;0.80;;
60018;SDS011;45870;42.528;26.740;2023-08-07T13:42:03;0.60;;;0.60;;
60018;SDS011;45870;42.528;26.740;2023-08-07T13:44:28;0.90;;;0.75;;
60018;SDS011;45870;42.528;26.740;2023-08-07T13:46:54;1.42;;;0.70;;
60018;SDS011;45870;42.528;26.740;2023-08-07T13:49:23;0.93;;;0.80;;
60018;SDS011;45870;42.528;26.740;2023-08-07T13:51:49;1.35;;;0.90;;
60018;SDS011;45870;42.528;26.740;2023-08-07T13:54:15;1.13;;;0.95;;
60018;SDS011;45870;42.528;26.740;2023-08-07T13:56:41;0.63;;;0.63;;
60018;SDS011;45870;42.528;26.740;2023-08-07T13:59:07;2.10;;;0.70;;
60018;SDS011;45870;42.528;26.740;2023-08-07T14:01:34;0.95;;;0.80;;
60018;SDS011;45870;42.528;26.740;2023-08-07T14:04:00;1.67;;;1.02;;
60018;SDS011;45870;42.528;26.740;2023-08-07T14:06:27;0.88;;;0.75;;
60018;SDS011;45870;42.528;26.740;2023-08-07T14:08:52;1.20;;;0.77;;
60018;SDS011;45870;42.528;26.740;2023-08-07T14:11:18;0.88;;;0.70;;
60018;SDS011;45870;42.528;26.740;2023-08-07T14:13:45;1.38;;;0.77;;
60018;SDS011;45870;42.528;26.740;2023-08-07T14:16:11;0.80;;;0.80;;
60018;SDS011;45870;42.528;26.740;2023-08-07T14:18:37;1.15;;;0.70;;
60018;SDS011;45870;42.528;26.740;2023-08-07T14:21:03;0.70;;;0.70;;
60018;SDS011;45870;42.528;26.740;2023-08-07T14:23:29;1.95;;;0.93;;
60018;SDS011;45870;42.528;26.740;2023-08-07T14:25:55;1.10;;;0.77;;
60018;SDS011;45870;42.528;26.740;2023-08-07T14:28:22;0.82;;;0.73;;
60018;SDS011;45870;42.528;26.740;2023-08-07T14:30:47;1.95;;;0.60;;
60018;SDS011;45870;42.528;26.740;2023-08-07T14:33:13;0.80;;;0.68;;
60018;SDS011;45870;42.528;26.740;2023-08-07T14:35:39;2.25;;;0.60;;
60018;SDS011;45870;42.528;26.740;2023-08-07T14:38:05;0.73;;;0.60;;
60018;SDS011;45870;42.528;26.740;2023-08-07T14:40:30;1.15;;;0.70;;